Time;durP1;ratioP1;P1;durP2;ratioP2;P2;SDS_P1;SDS_P2;PMS_P1;PMS_P2;Temp;Humidity;BMP_temperature;BMP_pressure;BME280_temperature;BME280_humidity;BME280_pressure;Samples;Min_cycle;Max_cycle;Signal;HPM_P1;HPM_P2
2024/03/24 00:02:03;;;;;;;6.20;3.80;;;;;;;;;;780980;180;713402;-68
2024/03/24 00:04:29;;;;;;;5.90;3.93;;;;;;;;;;774206;178;814878;-68
2024/03/24 00:06:55;;;;;;;8.67;4.23;;;;;;;;;;774322;177;916660;-68
2024/03/24 00:09:20;;;;;;;5.97;3.90;;;;;;;;;;779460;180;917233;-68
2024/03/24 00:11:46;;;;;;;5.30;3.20;;;;;;;;;;775997;179;812684;-68
2024/03/24 00:14:12;;;;;;;7.72;3.85;;;;;;;;;;775395;177;916234;-68
2024/03/24 00:16:38;;;;;;;5.43;3.20;;;;;;;;;;775964;177;914712;-67
2024/03/24 00:19:04;;;;;;;6.20;3.90;;;;;;;;;;775904;179;1020619;-68
2024/03/24 00:21:31;;;;;;;5.23;3.40;;;;;;;;;;775391;177;813396;-68
2024/03/24 00:23:55;;;;;;;5.30;4.00;;;;;;;;;;777442;179;647078;-68
2024/03/24 00:26:21;;;;;;;5.10;3.80;;;;;;;;;;780100;177;812692;-68
2024/03/24 00:28:47;;;;;;;7.40;3.83;;;;;;;;;;776702;177;775437;-68
2024/03/24 00:31:13;;;;;;;6.77;4.07;;;;;;;;;;777588;177;741282;-68
2024/03/24 00:33:39;;;;;;;5.10;3.60;;;;;;;;;;775692;180;918207;-69
2024/03/24 00:36:05;;;;;;;6.50;3.83;;;;;;;;;;773146;177;814159;-69
2024/03/24 00:38:31;;;;;;;5.40;3.53;;;;;;;;;;775187;178;850502;-68
2024/03/24 00:40:56;;;;;;;11.23;3.93;;;;;;;;;;780056;178;737411;-68
2024/03/24 00:43:22;;;;;;;6.47;3.67;;;;;;;;;;768518;178;818063;-68
2024/03/24 00:45:49;;;;;;;6.28;3.65;;;;;;;;;;774758;178;916597;-68
2024/03/24 00:48:15;;;;;;;4.85;3.45;;;;;;;;;;780108;178;882770;-69
2024/03/24 00:50:41;;;;;;;4.60;3.03;;;;;;;;;;774347;177;937073;-69
2024/03/24 00:53:06;;;;;;;5.80;3.90;;;;;;;;;;775928;179;785413;-71
2024/03/24 00:55:32;;;;;;;5.03;3.33;;;;;;;;;;769464;178;815571;-71
2024/03/24 00:57:58;;;;;;;5.10;3.50;;;;;;;;;;772550;178;803078;-71
2024/03/24 01:00:24;;;;;;;11.50;4.03;;;;;;;;;;770034;180;861398;-72
2024/03/24 01:02:50;;;;;;;5.67;3.60;;;;;;;;;;773880;178;813994;-74
2024/03/24 01:05:16;;;;;;;8.30;4.50;;;;;;;;;;779553;178;816884;-74
2024/03/24 01:07:42;;;;;;;6.40;4.10;;;;;;;;;;770995;180;759470;-75
2024/03/24 01:10:08;;;;;;;5.10;3.42;;;;;;;;;;771911;178;916193;-75
2024/03/24 01:12:33;;;;;;;5.70;3.20;;;;;;;;;;780750;179;784950;-73
2024/03/24 01:14:59;;;;;;;5.07;2.73;;;;;;;;;;776629;178;769487;-74
2024/03/24 01:17:25;;;;;;;5.55;3.33;;;;;;;;;;778966;179;714654;-74
2024/03/24 01:19:51;;;;;;;4.37;2.90;;;;;;;;;;780606;177;721165;-74
2024/03/24 01:22:17;;;;;;;4.50;2.73;;;;;;;;;;773336;178;763109;-72
2024/03/24 01:24:43;;;;;;;4.70;3.07;;;;;;;;;;775680;178;778542;-70
2024/03/24 01:27:08;;;;;;;5.20;2.90;;;;;;;;;;779727;179;764832;-71
2024/03/24 01:29:34;;;;;;;6.20;3.10;;;;;;;;;;774114;179;769667;-70
2024/03/24 01:32:00;;;;;;;6.57;3.57;;;;;;;;;;776420;178;712074;-71
2024/03/24 01:34:26;;;;;;;6.55;3.62;;;;;;;;;;774730;180;917464;-70
2024/03/24 01:36:52;;;;;;;11.63;3.03;;;;;;;;;;774850;180;713959;-71
2024/03/24 01:39:18;;;;;;;5.57;3.20;;;;;;;;;;778524;177;815830;-70
2024/03/24 01:41:43;;;;;;;4.70;3.50;;;;;;;;;;770715;178;921595;-71
2024/03/24 01:44:09;;;;;;;5.73;3.50;;;;;;;;;;782034;177;879220;-69
2024/03/24 01:46:35;;;;;;;7.20;3.23;;;;;;;;;;773574;178;914874;-70
2024/03/24 01:49:01;;;;;;;4.10;3.10;;;;;;;;;;779824;177;920127;-71
2024/03/24 01:51:27;;;;;;;4.17;3.07;;;;;;;;;;780467;177;920484;-69
2024/03/24 01:53:53;;;;;;;6.07;3.70;;;;;;;;;;781126;177;915247;-68
2024/03/24 01:56:19;;;;;;;5.77;2.80;;;;;;;;;;776284;177;918030;-71
2024/03/24 01:58:45;;;;;;;6.50;3.80;;;;;;;;;;777938;178;921058;-70
2024/03/24 02:01:11;;;;;;;6.00;4.73;;;;;;;;;;779074;177;805142;-69
2024/03/24 02:03:37;;;;;;;4.63;3.20;;;;;;;;;;770898;178;911059;-70
2024/03/24 02:06:03;;;;;;;5.30;3.62;;;;;;;;;;773320;177;917141;-70
2024/03/24 02:08:29;;;;;;;5.43;3.93;;;;;;;;;;772131;181;813689;-70
2024/03/24 02:10:54;;;;;;;7.97;4.30;;;;;;;;;;775017;177;918955;-70
2024/03/24 02:13:21;;;;;;;6.37;3.43;;;;;;;;;;777051;176;911614;-69
2024/03/24 02:15:46;;;;;;;7.90;3.50;;;;;;;;;;783580;177;796366;-70
2024/03/24 02:18:12;;;;;;;5.40;3.60;;;;;;;;;;775414;177;680857;-70
2024/03/24 02:20:38;;;;;;;5.47;3.60;;;;;;;;;;772277;176;934533;-70
2024/03/24 02:23:04;;;;;;;4.78;3.10;;;;;;;;;;780609;177;768970;-71
2024/03/24 02:25:30;;;;;;;6.33;3.53;;;;;;;;;;779398;177;814107;-71
2024/03/24 02:27:55;;;;;;;6.37;4.20;;;;;;;;;;777826;177;871487;-71
2024/03/24 02:30:22;;;;;;;6.83;3.80;;;;;;;;;;779416;177;686478;-70
2024/03/24 02:32:47;;;;;;;7.03;4.07;;;;;;;;;;777081;177;794274;-70
2024/03/24 02:35:13;;;;;;;8.07;4.30;;;;;;;;;;776711;177;719082;-70
2024/03/24 02:37:39;;;;;;;5.60;4.07;;;;;;;;;;778047;177;922396;-70
2024/03/24 02:40:09;;;;;;;5.90;4.30;;;;;;;;;;773422;177;934595;-72
2024/03/24 02:42:33;;;;;;;5.10;3.97;;;;;;;;;;773436;177;771096;-71
2024/03/24 02:44:59;;;;;;;8.43;4.63;;;;;;;;;;774469;177;818160;-70
2024/03/24 02:47:25;;;;;;;7.90;4.60;;;;;;;;;;779747;177;740063;-69
2024/03/24 02:49:51;;;;;;;8.60;4.20;;;;;;;;;;776308;179;918670;-71
2024/03/24 02:52:17;;;;;;;7.93;4.70;;;;;;;;;;776221;179;917538;-69
2024/03/24 02:54:43;;;;;;;8.13;5.83;;;;;;;;;;776087;180;918861;-70
2024/03/24 02:57:08;;;;;;;7.40;5.23;;;;;;;;;;774571;178;914734;-70
2024/03/24 02:59:34;;;;;;;8.20;5.50;;;;;;;;;;775805;180;782391;-72
2024/03/24 03:02:01;;;;;;;8.30;5.93;;;;;;;;;;777491;180;714592;-71
2024/03/24 03:04:27;;;;;;;12.17;5.77;;;;;;;;;;774262;177;816522;-73
2024/03/24 03:06:53;;;;;;;9.93;5.57;;;;;;;;;;774681;177;935067;-71
2024/03/24 03:09:18;;;;;;;10.83;5.50;;;;;;;;;;776105;178;916430;-72
2024/03/24 03:11:44;;;;;;;7.53;5.10;;;;;;;;;;777032;180;919195;-71
2024/03/24 03:14:10;;;;;;;7.97;5.20;;;;;;;;;;774939;180;800901;-71
2024/03/24 03:16:38;;;;;;;10.77;6.13;;;;;;;;;;776470;177;820504;-69
2024/03/24 03:19:02;;;;;;;8.03;5.40;;;;;;;;;;780648;178;814213;-68
2024/03/24 03:21:28;;;;;;;9.63;5.50;;;;;;;;;;770056;180;813652;-68
2024/03/24 03:23:53;;;;;;;10.07;5.75;;;;;;;;;;776528;180;716534;-67
2024/03/24 03:26:20;;;;;;;7.83;5.20;;;;;;;;;;779570;180;817224;-67
2024/03/24 03:28:45;;;;;;;9.40;5.50;;;;;;;;;;776106;179;716300;-68
2024/03/24 03:31:11;;;;;;;7.23;4.60;;;;;;;;;;775191;178;882954;-66
2024/03/24 03:33:37;;;;;;;7.47;5.37;;;;;;;;;;781021;179;628991;-68
2024/03/24 03:36:03;;;;;;;10.57;5.53;;;;;;;;;;770614;178;838481;-68
2024/03/24 03:38:29;;;;;;;8.63;5.40;;;;;;;;;;773180;176;806307;-68
2024/03/24 03:40:55;;;;;;;9.10;5.25;;;;;;;;;;775788;177;913784;-69
2024/03/24 03:43:21;;;;;;;7.43;5.03;;;;;;;;;;773885;178;906607;-68
2024/03/24 03:45:47;;;;;;;8.17;5.80;;;;;;;;;;774390;177;879041;-69
2024/03/24 03:48:13;;;;;;;6.30;5.30;;;;;;;;;;775987;179;922097;-68
2024/03/24 03:50:40;;;;;;;9.60;5.82;;;;;;;;;;778392;177;843835;-68
2024/03/24 03:53:06;;;;;;;9.10;5.20;;;;;;;;;;777662;178;816364;-66
2024/03/24 03:55:33;;;;;;;9.33;5.10;;;;;;;;;;774731;180;820931;-68
2024/03/24 03:57:56;;;;;;;9.83;5.93;;;;;;;;;;778477;177;717550;-67
2024/03/24 04:00:22;;;;;;;8.23;5.20;;;;;;;;;;774630;180;898158;-66
2024/03/24 04:02:48;;;;;;;6.63;4.87;;;;;;;;;;773360;179;918065;-68
2024/03/24 04:05:14;;;;;;;10.67;6.00;;;;;;;;;;780985;177;673257;-66
2024/03/24 04:07:39;;;;;;;8.90;5.77;;;;;;;;;;772705;179;805811;-68
2024/03/24 04:10:06;;;;;;;10.30;5.70;;;;;;;;;;774389;177;870208;-68
2024/03/24 04:12:32;;;;;;;8.03;5.30;;;;;;;;;;776731;177;915357;-68
2024/03/24 04:14:58;;;;;;;8.70;5.60;;;;;;;;;;772714;177;922872;-67
2024/03/24 04:17:24;;;;;;;9.53;5.37;;;;;;;;;;769784;178;852249;-67
2024/03/24 04:19:50;;;;;;;9.03;4.90;;;;;;;;;;772039;178;706793;-68
2024/03/24 04:22:17;;;;;;;9.23;6.40;;;;;;;;;;779170;180;865591;-68
2024/03/24 04:24:42;;;;;;;9.03;4.40;;;;;;;;;;775720;180;707673;-68
2024/03/24 04:27:08;;;;;;;6.37;4.50;;;;;;;;;;776107;179;693685;-67
2024/03/24 04:29:33;;;;;;;13.40;4.77;;;;;;;;;;780712;178;745422;-67
2024/03/24 04:31:59;;;;;;;9.30;4.67;;;;;;;;;;774014;179;820199;-67
2024/03/24 04:34:25;;;;;;;7.43;4.30;;;;;;;;;;776148;179;919597;-66
2024/03/24 04:36:51;;;;;;;8.20;5.10;;;;;;;;;;780038;178;819355;-67
2024/03/24 04:39:19;;;;;;;20.37;4.70;;;;;;;;;;769399;177;917120;-67
2024/03/24 04:41:43;;;;;;;6.50;4.80;;;;;;;;;;775579;178;902636;-69
2024/03/24 04:44:08;;;;;;;8.30;5.07;;;;;;;;;;777852;180;918667;-69
2024/03/24 04:46:34;;;;;;;9.70;4.80;;;;;;;;;;772039;180;918013;-69
2024/03/24 04:49:00;;;;;;;9.30;4.73;;;;;;;;;;772510;177;920893;-68
2024/03/24 04:51:26;;;;;;;5.30;3.80;;;;;;;;;;777097;177;812680;-69
2024/03/24 04:53:52;;;;;;;10.43;4.73;;;;;;;;;;779359;180;814951;-68
2024/03/24 04:56:18;;;;;;;9.13;4.80;;;;;;;;;;773534;177;914285;-69
2024/03/24 04:58:43;;;;;;;5.53;4.40;;;;;;;;;;777497;177;917844;-69
2024/03/24 05:01:11;;;;;;;10.27;5.37;;;;;;;;;;778742;178;773609;-69
2024/03/24 05:03:35;;;;;;;7.22;4.43;;;;;;;;;;773190;177;916284;-69
2024/03/24 05:06:02;;;;;;;7.70;4.67;;;;;;;;;;775933;177;926800;-69
2024/03/24 05:08:28;;;;;;;9.00;4.17;;;;;;;;;;778831;177;919480;-68
2024/03/24 05:10:53;;;;;;;6.27;4.00;;;;;;;;;;767320;179;816512;-68
2024/03/24 05:13:19;;;;;;;8.43;4.10;;;;;;;;;;773133;177;888583;-67
2024/03/24 05:15:44;;;;;;;8.33;5.23;;;;;;;;;;781284;177;812951;-70
2024/03/24 05:18:11;;;;;;;8.10;4.30;;;;;;;;;;772574;180;819190;-70
2024/03/24 05:20:36;;;;;;;7.80;3.90;;;;;;;;;;775806;178;918083;-68
2024/03/24 05:23:02;;;;;;;6.03;3.70;;;;;;;;;;774974;177;716375;-68
2024/03/24 05:25:28;;;;;;;7.50;5.07;;;;;;;;;;775396;177;843330;-68
2024/03/24 05:27:54;;;;;;;7.00;4.40;;;;;;;;;;771258;179;916471;-68
2024/03/24 05:30:19;;;;;;;8.23;3.83;;;;;;;;;;772439;180;814421;-68
2024/03/24 05:32:46;;;;;;;12.27;4.80;;;;;;;;;;778239;180;814969;-67
2024/03/24 05:35:11;;;;;;;6.50;3.83;;;;;;;;;;774641;178;903004;-69
2024/03/24 05:37:38;;;;;;;7.68;4.68;;;;;;;;;;774041;178;911463;-69
2024/03/24 05:40:03;;;;;;;6.93;4.20;;;;;;;;;;777591;177;913946;-68
2024/03/24 05:42:29;;;;;;;9.43;4.77;;;;;;;;;;776605;177;668392;-68
2024/03/24 05:44:55;;;;;;;8.07;4.37;;;;;;;;;;773599;177;819793;-68
2024/03/24 05:47:21;;;;;;;9.60;4.90;;;;;;;;;;780844;177;810839;-69
2024/03/24 05:49:47;;;;;;;6.90;3.70;;;;;;;;;;771057;180;919954;-69
2024/03/24 05:52:12;;;;;;;6.50;4.30;;;;;;;;;;774447;178;919961;-69
2024/03/24 05:54:38;;;;;;;8.90;4.63;;;;;;;;;;778955;181;816728;-67
2024/03/24 05:57:04;;;;;;;9.67;4.20;;;;;;;;;;771934;177;917990;-66
2024/03/24 05:59:30;;;;;;;7.20;3.73;;;;;;;;;;771610;177;918782;-67
2024/03/24 06:01:56;;;;;;;7.50;4.10;;;;;;;;;;778103;178;828394;-67
2024/03/24 06:04:22;;;;;;;9.40;3.70;;;;;;;;;;780790;180;924097;-65
2024/03/24 06:06:48;;;;;;;7.20;3.80;;;;;;;;;;777832;177;815493;-67
2024/03/24 06:09:13;;;;;;;8.60;3.95;;;;;;;;;;771040;176;917803;-67
2024/03/24 06:11:39;;;;;;;8.10;3.37;;;;;;;;;;779735;178;821638;-67
2024/03/24 06:14:05;;;;;;;9.87;4.47;;;;;;;;;;778047;177;820531;-66
2024/03/24 06:16:31;;;;;;;11.17;4.33;;;;;;;;;;773595;180;819201;-67
2024/03/24 06:18:57;;;;;;;5.72;3.50;;;;;;;;;;777539;180;817211;-67
2024/03/24 06:21:23;;;;;;;5.47;3.63;;;;;;;;;;772225;178;910832;-67
2024/03/24 06:23:53;;;;;;;5.80;3.97;;;;;;;;;;772311;178;927356;-66
2024/03/24 06:26:14;;;;;;;7.10;3.90;;;;;;;;;;777470;178;846363;-68
2024/03/24 06:28:40;;;;;;;5.17;3.30;;;;;;;;;;775271;177;807017;-67
2024/03/24 06:31:06;;;;;;;7.10;5.00;;;;;;;;;;775886;177;749251;-67
2024/03/24 06:33:32;;;;;;;6.83;3.77;;;;;;;;;;772377;177;912092;-66
2024/03/24 06:35:58;;;;;;;4.43;3.00;;;;;;;;;;769135;180;895166;-65
2024/03/24 06:38:23;;;;;;;4.93;3.10;;;;;;;;;;773853;177;916985;-66
2024/03/24 06:40:49;;;;;;;10.60;3.72;;;;;;;;;;775241;177;913341;-67
2024/03/24 06:43:47;;;;;;;6.77;3.60;;;;;;;;;;762266;180;889762;-66
2024/03/24 06:45:56;;;;;;;4.77;3.87;;;;;;;;;;759276;184;755665;-67
2024/03/24 06:48:22;;;;;;;8.73;3.80;;;;;;;;;;773035;176;916811;-67
2024/03/24 06:50:47;;;;;;;6.20;4.37;;;;;;;;;;775884;177;915932;-67
2024/03/24 06:53:14;;;;;;;6.40;3.60;;;;;;;;;;778701;178;918886;-67
2024/03/24 06:55:39;;;;;;;7.03;5.33;;;;;;;;;;773666;177;916970;-69
2024/03/24 06:58:05;;;;;;;5.22;3.40;;;;;;;;;;775749;177;918595;-70
2024/03/24 07:00:31;;;;;;;5.00;3.60;;;;;;;;;;778040;177;739836;-70
2024/03/24 07:02:57;;;;;;;5.40;3.00;;;;;;;;;;773333;176;924133;-70
2024/03/24 07:05:23;;;;;;;5.57;3.90;;;;;;;;;;772836;177;917254;-66
2024/03/24 07:07:49;;;;;;;10.57;3.67;;;;;;;;;;777385;177;915666;-68
2024/03/24 07:10:14;;;;;;;4.53;2.83;;;;;;;;;;780235;177;817703;-67
2024/03/24 07:12:40;;;;;;;6.53;3.53;;;;;;;;;;783337;176;626265;-67
2024/03/24 07:15:06;;;;;;;4.37;2.60;;;;;;;;;;777384;177;809260;-70
2024/03/24 07:17:32;;;;;;;4.60;3.33;;;;;;;;;;777207;177;881346;-71
2024/03/24 07:19:58;;;;;;;6.00;2.90;;;;;;;;;;777190;176;885455;-72
2024/03/24 07:22:24;;;;;;;5.30;3.20;;;;;;;;;;774074;177;707793;-70
2024/03/24 07:24:50;;;;;;;5.50;3.10;;;;;;;;;;780459;178;815311;-69
2024/03/24 07:27:15;;;;;;;6.13;3.07;;;;;;;;;;781281;177;868939;-68
2024/03/24 07:29:41;;;;;;;6.07;3.37;;;;;;;;;;769528;177;918339;-69
2024/03/24 07:32:07;;;;;;;7.70;3.57;;;;;;;;;;771194;177;624120;-80
2024/03/24 07:34:33;;;;;;;6.63;3.20;;;;;;;;;;755003;186;645581;-81
2024/03/24 07:36:59;;;;;;;5.73;4.10;;;;;;;;;;751557;186;688769;-80
2024/03/24 07:39:25;;;;;;;5.80;3.73;;;;;;;;;;751121;187;784097;-81
2024/03/24 07:41:51;;;;;;;5.47;2.97;;;;;;;;;;746543;186;666072;-79
2024/03/24 07:44:19;;;;;;;4.13;2.63;;;;;;;;;;745774;188;657347;-82
2024/03/24 07:46:42;;;;;;;9.30;2.50;;;;;;;;;;752668;187;624528;-81
2024/03/24 07:49:09;;;;;;;3.33;2.03;;;;;;;;;;748567;186;632491;-81
2024/03/24 07:51:34;;;;;;;4.07;2.03;;;;;;;;;;751201;186;631202;-82
2024/03/24 07:54:00;;;;;;;4.40;2.50;;;;;;;;;;747804;187;628654;-82
2024/03/24 07:56:26;;;;;;;3.20;2.00;;;;;;;;;;742752;188;634887;-81
2024/03/24 07:58:52;;;;;;;5.83;2.30;;;;;;;;;;746896;187;640898;-82
2024/03/24 08:01:18;;;;;;;7.43;1.93;;;;;;;;;;749806;184;635517;-81
2024/03/24 08:03:43;;;;;;;3.17;2.00;;;;;;;;;;754060;187;784955;-82
2024/03/24 08:06:10;;;;;;;5.30;2.33;;;;;;;;;;744785;187;627345;-80
2024/03/24 08:08:35;;;;;;;6.20;2.87;;;;;;;;;;745539;186;669460;-82
2024/03/24 08:11:01;;;;;;;5.20;2.47;;;;;;;;;;756030;186;630829;-80
2024/03/24 08:13:27;;;;;;;5.10;2.20;;;;;;;;;;753754;186;703633;-82
2024/03/24 08:15:53;;;;;;;3.50;1.85;;;;;;;;;;743425;188;650994;-80
2024/03/24 08:18:19;;;;;;;6.70;1.83;;;;;;;;;;745075;187;1655566;-82
2024/03/24 08:20:44;;;;;;;4.47;2.37;;;;;;;;;;745922;188;642577;-80
2024/03/24 08:23:10;;;;;;;5.40;2.30;;;;;;;;;;753177;184;639117;-82
2024/03/24 08:25:36;;;;;;;6.50;1.97;;;;;;;;;;745449;186;713669;-81
2024/03/24 08:28:02;;;;;;;12.70;2.80;;;;;;;;;;759990;184;646346;-82
2024/03/24 08:30:29;;;;;;;3.70;1.87;;;;;;;;;;750186;187;723273;-82
2024/03/24 08:32:54;;;;;;;4.70;2.40;;;;;;;;;;753967;185;710084;-81
2024/03/24 08:35:20;;;;;;;4.20;2.27;;;;;;;;;;750661;187;1003300;-83
2024/03/24 08:37:49;;;;;;;3.80;2.20;;;;;;;;;;751804;186;643353;-81
2024/03/24 08:40:12;;;;;;;3.20;2.07;;;;;;;;;;746267;188;631470;-82
2024/03/24 08:42:38;;;;;;;3.90;2.00;;;;;;;;;;747666;187;730447;-79
2024/03/24 08:45:04;;;;;;;4.70;2.50;;;;;;;;;;743429;187;729449;-81
2024/03/24 08:47:30;;;;;;;3.53;2.05;;;;;;;;;;750623;186;621185;-80
2024/03/24 08:49:55;;;;;;;4.40;2.00;;;;;;;;;;750085;186;664377;-81
2024/03/24 08:52:21;;;;;;;9.33;2.43;;;;;;;;;;746765;187;676077;-79
2024/03/24 08:54:47;;;;;;;3.80;2.10;;;;;;;;;;747503;187;671911;-80
2024/03/24 08:57:13;;;;;;;3.27;1.70;;;;;;;;;;749641;187;632319;-80
2024/03/24 08:59:39;;;;;;;2.90;1.73;;;;;;;;;;742178;186;698974;-80
2024/03/24 09:02:05;;;;;;;5.43;2.03;;;;;;;;;;748702;186;647005;-80
2024/03/24 09:04:31;;;;;;;4.78;2.33;;;;;;;;;;746551;187;654505;-81
2024/03/24 09:06:56;;;;;;;3.90;2.00;;;;;;;;;;755572;186;615840;-80
2024/03/24 09:09:22;;;;;;;4.40;1.97;;;;;;;;;;743819;187;725168;-81
2024/03/24 09:11:48;;;;;;;7.53;2.50;;;;;;;;;;744031;187;650779;-80
2024/03/24 09:14:14;;;;;;;3.17;2.00;;;;;;;;;;751494;186;621367;-80
2024/03/24 09:16:40;;;;;;;4.80;2.30;;;;;;;;;;740065;187;646113;-81
2024/03/24 09:19:06;;;;;;;9.57;2.70;;;;;;;;;;741613;188;639109;-81
2024/03/24 09:21:32;;;;;;;3.57;1.87;;;;;;;;;;749794;187;652019;-81
2024/03/24 09:23:57;;;;;;;4.07;2.17;;;;;;;;;;746373;186;623606;-80
2024/03/24 09:26:24;;;;;;;5.20;2.50;;;;;;;;;;748870;187;640631;-80
2024/03/24 09:28:49;;;;;;;3.47;2.00;;;;;;;;;;745911;188;637094;-81
2024/03/24 09:31:15;;;;;;;3.90;2.20;;;;;;;;;;742337;187;712009;-81
2024/03/24 09:33:41;;;;;;;4.33;2.70;;;;;;;;;;743949;187;710982;-83
2024/03/24 09:36:07;;;;;;;3.73;2.00;;;;;;;;;;746764;186;633494;-81
2024/03/24 09:38:33;;;;;;;3.57;2.00;;;;;;;;;;754031;186;632631;-80
2024/03/24 09:40:58;;;;;;;8.30;3.03;;;;;;;;;;752156;186;638164;-82
2024/03/24 09:43:24;;;;;;;3.03;2.20;;;;;;;;;;749790;187;660662;-82
2024/03/24 09:45:50;;;;;;;3.90;1.93;;;;;;;;;;752709;186;781545;-81
2024/03/24 09:48:16;;;;;;;4.70;2.10;;;;;;;;;;750123;186;624167;-81
2024/03/24 09:50:42;;;;;;;4.00;1.90;;;;;;;;;;758460;186;636750;-81
2024/03/24 09:53:08;;;;;;;3.53;2.07;;;;;;;;;;760461;186;626602;-80
2024/03/24 09:55:34;;;;;;;4.87;1.97;;;;;;;;;;746511;187;716521;-78
2024/03/24 09:58:00;;;;;;;3.93;1.90;;;;;;;;;;743909;187;848436;-80
2024/03/24 10:00:27;;;;;;;3.90;2.10;;;;;;;;;;748971;186;682678;-80
2024/03/24 10:02:53;;;;;;;5.20;2.60;;;;;;;;;;747476;186;814548;-79
2024/03/24 10:05:19;;;;;;;4.13;2.13;;;;;;;;;;746145;179;917071;-64
2024/03/24 10:07:45;;;;;;;3.60;2.20;;;;;;;;;;754382;186;649863;-64
2024/03/24 10:10:11;;;;;;;5.13;1.90;;;;;;;;;;763261;186;646483;-66
2024/03/24 10:12:36;;;;;;;3.33;1.93;;;;;;;;;;757852;182;920529;-64
2024/03/24 10:15:08;;;;;;;3.70;2.28;;;;;;;;;;758843;185;807817;-65
2024/03/24 10:17:34;;;;;;;3.73;1.90;;;;;;;;;;760894;185;958943;-64
2024/03/24 10:20:00;;;;;;;3.13;1.60;;;;;;;;;;742921;189;920221;-65
2024/03/24 10:22:26;;;;;;;2.43;1.33;;;;;;;;;;728868;193;889915;-65
2024/03/24 10:24:52;;;;;;;4.50;2.33;;;;;;;;;;759564;185;862289;-65
2024/03/24 10:27:17;;;;;;;3.70;1.80;;;;;;;;;;750375;183;909844;-65
2024/03/24 10:29:43;;;;;;;3.13;1.67;;;;;;;;;;754352;183;915454;-65
2024/03/24 10:32:10;;;;;;;2.57;1.73;;;;;;;;;;758653;182;813365;-65
2024/03/24 10:34:36;;;;;;;2.70;1.43;;;;;;;;;;761896;183;620981;-65
2024/03/24 10:37:02;;;;;;;3.87;1.70;;;;;;;;;;743479;189;919387;-66
2024/03/24 10:39:28;;;;;;;2.80;1.60;;;;;;;;;;749638;186;919241;-65
2024/03/24 10:41:54;;;;;;;3.63;1.50;;;;;;;;;;759127;186;919324;-66
2024/03/24 10:44:19;;;;;;;2.80;1.43;;;;;;;;;;752543;186;920810;-64
2024/03/24 10:46:45;;;;;;;3.15;1.90;;;;;;;;;;753981;182;918576;-65
2024/03/24 10:49:11;;;;;;;2.80;2.07;;;;;;;;;;760052;183;644840;-65
2024/03/24 10:51:37;;;;;;;3.37;1.80;;;;;;;;;;756859;186;816017;-65
2024/03/24 10:54:05;;;;;;;3.13;1.67;;;;;;;;;;741106;187;918805;-65
2024/03/24 10:56:29;;;;;;;3.23;1.70;;;;;;;;;;764203;182;652060;-65
2024/03/24 10:58:56;;;;;;;3.50;2.03;;;;;;;;;;745529;189;921226;-66
2024/03/24 11:01:21;;;;;;;3.10;2.00;;;;;;;;;;760373;182;646757;-66
2024/03/24 11:03:48;;;;;;;2.70;1.53;;;;;;;;;;745012;189;919750;-66
2024/03/24 11:06:13;;;;;;;3.10;1.70;;;;;;;;;;735216;190;672116;-65
2024/03/24 11:08:39;;;;;;;4.63;1.57;;;;;;;;;;757797;185;919193;-64
2024/03/24 11:11:05;;;;;;;3.30;1.40;;;;;;;;;;757545;182;945385;-65
2024/03/24 11:13:30;;;;;;;4.57;1.60;;;;;;;;;;761212;185;918304;-65
2024/03/24 11:15:56;;;;;;;3.85;1.58;;;;;;;;;;757786;182;920881;-66
2024/03/24 11:18:23;;;;;;;3.37;1.57;;;;;;;;;;757790;183;919580;-66
2024/03/24 11:20:51;;;;;;;4.60;2.10;;;;;;;;;;763486;182;710929;-66
2024/03/24 11:23:16;;;;;;;5.60;1.87;;;;;;;;;;742785;189;918007;-66
2024/03/24 11:25:42;;;;;;;6.10;2.07;;;;;;;;;;729364;190;918134;-67
2024/03/24 11:28:08;;;;;;;3.23;1.77;;;;;;;;;;742168;189;918697;-65
2024/03/24 11:30:34;;;;;;;4.60;1.80;;;;;;;;;;761942;182;919826;-66
2024/03/24 11:33:00;;;;;;;2.77;1.77;;;;;;;;;;740876;189;918615;-65
2024/03/24 11:35:26;;;;;;;5.95;1.67;;;;;;;;;;755778;183;919208;-66
2024/03/24 11:37:51;;;;;;;3.73;1.93;;;;;;;;;;764484;185;624270;-66
2024/03/24 11:40:18;;;;;;;3.37;1.57;;;;;;;;;;760445;182;630297;-65
2024/03/24 11:42:44;;;;;;;4.27;2.40;;;;;;;;;;760590;185;623061;-65
2024/03/24 11:45:16;;;;;;;3.50;1.47;;;;;;;;;;762403;185;918964;-65
2024/03/24 11:47:41;;;;;;;5.80;1.80;;;;;;;;;;760916;182;675387;-65
2024/03/24 11:50:08;;;;;;;3.50;1.33;;;;;;;;;;755531;185;920019;-65
2024/03/24 11:52:34;;;;;;;3.37;1.70;;;;;;;;;;759189;182;636157;-65
2024/03/24 11:55:00;;;;;;;3.37;1.53;;;;;;;;;;762992;184;815411;-65
2024/03/24 11:57:26;;;;;;;3.13;1.80;;;;;;;;;;743865;189;919784;-65
2024/03/24 11:59:51;;;;;;;2.90;1.60;;;;;;;;;;762566;183;641700;-65
2024/03/24 12:02:17;;;;;;;11.03;1.90;;;;;;;;;;765622;183;639250;-65
2024/03/24 12:04:43;;;;;;;4.00;1.40;;;;;;;;;;762220;182;628025;-65
2024/03/24 12:07:09;;;;;;;5.37;1.80;;;;;;;;;;762146;182;638873;-65
2024/03/24 12:09:35;;;;;;;3.73;1.63;;;;;;;;;;750707;186;650636;-65
2024/03/24 12:12:01;;;;;;;7.93;1.67;;;;;;;;;;761190;183;639778;-65
2024/03/24 12:14:27;;;;;;;2.70;1.50;;;;;;;;;;758903;183;811502;-65
2024/03/24 12:16:58;;;;;;;3.27;1.53;;;;;;;;;;761849;183;908903;-66
2024/03/24 12:19:24;;;;;;;4.80;1.90;;;;;;;;;;749243;186;815697;-65
2024/03/24 12:21:50;;;;;;;3.93;1.30;;;;;;;;;;730950;193;919258;-64
2024/03/24 12:24:16;;;;;;;2.90;1.53;;;;;;;;;;755214;182;1022074;-65
2024/03/24 12:26:41;;;;;;;4.37;2.10;;;;;;;;;;763175;185;919098;-65
2024/03/24 12:29:07;;;;;;;2.60;1.40;;;;;;;;;;761402;182;642202;-64
2024/03/24 12:31:33;;;;;;;6.03;1.67;;;;;;;;;;757397;182;916438;-65
2024/03/24 12:33:59;;;;;;;4.20;1.90;;;;;;;;;;761427;182;918781;-65
2024/03/24 12:36:25;;;;;;;3.73;1.50;;;;;;;;;;755117;183;921495;-65
2024/03/24 12:38:51;;;;;;;3.30;2.17;;;;;;;;;;741759;189;919241;-64
2024/03/24 12:41:20;;;;;;;7.03;1.97;;;;;;;;;;759025;183;632098;-66
2024/03/24 12:43:51;;;;;;;2.57;1.40;;;;;;;;;;746713;189;629745;-65
2024/03/24 12:46:16;;;;;;;3.13;1.90;;;;;;;;;;741818;187;816965;-65
2024/03/24 12:48:42;;;;;;;3.33;1.80;;;;;;;;;;730665;193;635655;-66
2024/03/24 12:51:08;;;;;;;2.70;1.30;;;;;;;;;;733585;192;626960;-66
2024/03/24 12:53:35;;;;;;;2.70;1.60;;;;;;;;;;759712;184;624990;-67
2024/03/24 12:56:00;;;;;;;3.10;1.60;;;;;;;;;;759767;185;635637;-65
2024/03/24 12:58:27;;;;;;;3.90;1.80;;;;;;;;;;762931;182;631218;-66
2024/03/24 13:00:53;;;;;;;3.07;1.70;;;;;;;;;;743985;189;627049;-65
2024/03/24 13:03:20;;;;;;;4.27;1.90;;;;;;;;;;756367;183;633477;-64
2024/03/24 13:05:46;;;;;;;3.50;1.90;;;;;;;;;;744750;189;657765;-65
2024/03/24 13:08:11;;;;;;;6.80;2.20;;;;;;;;;;763080;183;632546;-66
2024/03/24 13:10:37;;;;;;;3.40;1.90;;;;;;;;;;761243;183;629761;-65
2024/03/24 13:13:03;;;;;;;6.80;2.83;;;;;;;;;;762002;182;633044;-65
2024/03/24 13:15:30;;;;;;;3.50;1.70;;;;;;;;;;765288;185;626375;-67
2024/03/24 13:17:56;;;;;;;3.40;1.73;;;;;;;;;;760063;182;632586;-64
2024/03/24 13:20:22;;;;;;;2.83;1.40;;;;;;;;;;760279;182;627149;-67
2024/03/24 13:22:48;;;;;;;4.43;1.83;;;;;;;;;;765531;182;629690;-65
2024/03/24 13:25:13;;;;;;;3.87;2.70;;;;;;;;;;746155;189;685624;-66
2024/03/24 13:27:45;;;;;;;4.07;1.42;;;;;;;;;;753563;186;918670;-65
2024/03/24 13:30:11;;;;;;;4.43;1.73;;;;;;;;;;742131;189;920800;-65
2024/03/24 13:32:37;;;;;;;3.33;1.80;;;;;;;;;;762561;182;922461;-65
2024/03/24 13:35:03;;;;;;;3.17;1.43;;;;;;;;;;756053;185;925834;-65
2024/03/24 13:37:29;;;;;;;7.13;2.00;;;;;;;;;;754683;182;920046;-65
2024/03/24 13:39:57;;;;;;;2.67;1.30;;;;;;;;;;762369;183;918751;-65
2024/03/24 13:42:26;;;;;;;4.20;1.63;;;;;;;;;;759714;183;626356;-66
2024/03/24 13:44:53;;;;;;;3.63;1.37;;;;;;;;;;758723;183;870485;-66
2024/03/24 13:47:21;;;;;;;2.20;1.10;;;;;;;;;;759472;182;636794;-66
2024/03/24 13:49:47;;;;;;;2.67;1.43;;;;;;;;;;761853;183;921991;-66
2024/03/24 13:52:12;;;;;;;2.80;1.23;;;;;;;;;;743895;189;1021763;-66
2024/03/24 13:54:38;;;;;;;3.43;1.63;;;;;;;;;;752688;185;918660;-66
2024/03/24 13:57:04;;;;;;;2.20;1.10;;;;;;;;;;759313;183;917116;-66
2024/03/24 13:59:30;;;;;;;6.50;1.70;;;;;;;;;;740082;189;812321;-66
2024/03/24 14:01:58;;;;;;;3.90;1.23;;;;;;;;;;738630;189;1023941;-66
2024/03/24 14:04:22;;;;;;;5.23;1.90;;;;;;;;;;733248;192;816826;-66
2024/03/24 14:06:47;;;;;;;3.53;1.90;;;;;;;;;;755345;183;917356;-66
2024/03/24 14:09:13;;;;;;;2.95;2.00;;;;;;;;;;756164;182;1035503;-66
2024/03/24 14:11:40;;;;;;;3.60;1.40;;;;;;;;;;759646;182;815834;-67
2024/03/24 14:14:06;;;;;;;2.93;1.27;;;;;;;;;;764156;182;942360;-66
2024/03/24 14:16:37;;;;;;;2.27;1.23;;;;;;;;;;740932;186;916523;-65
2024/03/24 14:19:19;;;;;;;3.37;1.10;;;;;;;;;;757407;182;1022101;-66
2024/03/24 14:21:48;;;;;;;2.80;1.43;;;;;;;;;;758082;182;918311;-66